Time;durP1;ratioP1;P1;durP2;ratioP2;P2;SDS_P1;SDS_P2;PMS_P1;PMS_P2;Temp;Humidity;BMP_temperature;BMP_pressure;BME280_temperature;BME280_humidity;BME280_pressure;Samples;Min_cycle;Max_cycle;Signal;HPM_P1;HPM_P2
2022/07/02 00:01:52;;;;;;;2.80;1.00;;;18.20;94.10;;;;;;5009951;28;20960;-76
2022/07/02 00:04:27;;;;;;;2.60;1.10;;;18.20;94.40;;;;;;5011958;28;20628;-76
2022/07/02 00:06:53;;;;;;;2.70;0.90;;;18.10;94.80;;;;;;5010699;28;20932;-75
2022/07/02 00:09:19;;;;;;;2.33;1.00;;;18.10;94.70;;;;;;5011808;28;20593;-76
2022/07/02 00:11:48;;;;;;;3.83;1.17;;;18.10;95.00;;;;;;5011107;28;20566;-75
2022/07/02 00:14:15;;;;;;;2.17;0.80;;;18.10;95.30;;;;;;5014844;28;20607;-76
2022/07/02 00:16:45;;;;;;;2.30;1.00;;;18.00;95.40;;;;;;5011918;28;20601;-76
2022/07/02 00:19:15;;;;;;;1.93;1.10;;;17.90;95.70;;;;;;5010330;28;20597;-76
2022/07/02 00:21:40;;;;;;;3.87;1.13;;;17.90;96.00;;;;;;5009508;28;20629;-72
2022/07/02 00:24:07;;;;;;;1.90;1.20;;;17.90;96.20;;;;;;4993954;28;20593;-72
2022/07/02 00:26:40;;;;;;;3.40;1.10;;;17.90;96.50;;;;;;5010299;28;20576;-72
2022/07/02 00:29:29;;;;;;;3.07;1.00;;;17.80;96.70;;;;;;5010213;28;20616;-72
2022/07/02 00:31:56;;;;;;;2.90;1.00;;;17.80;97.30;;;;;;5009548;28;20569;-72
2022/07/02 00:34:24;;;;;;;1.63;0.87;;;17.70;96.90;;;;;;5011472;28;20571;-73
2022/07/02 00:36:50;;;;;;;7.70;1.50;;;17.70;97.20;;;;;;5011708;28;20565;-73
2022/07/02 00:39:16;;;;;;;1.70;0.80;;;17.70;97.40;;;;;;5013816;28;20616;-72
2022/07/02 00:41:45;;;;;;;7.60;1.00;;;17.60;97.70;;;;;;5012984;28;20625;-73
2022/07/02 00:44:12;;;;;;;2.77;0.90;;;17.60;97.90;;;;;;5015419;28;20213;-72
2022/07/02 00:46:38;;;;;;;2.73;0.80;;;17.60;98.10;;;;;;4997022;28;20976;-73
2022/07/02 00:49:04;;;;;;;1.63;0.97;;;17.50;98.20;;;;;;5014044;28;20632;-73
2022/07/02 00:51:32;;;;;;;1.93;0.80;;;17.50;98.50;;;;;;4999321;28;20608;-73
2022/07/02 00:53:58;;;;;;;5.43;1.83;;;17.50;98.70;;;;;;5014974;28;20170;-73
2022/07/02 00:56:25;;;;;;;1.77;0.80;;;17.40;98.80;;;;;;5013744;28;20600;-72
2022/07/02 00:58:51;;;;;;;2.33;0.80;;;17.40;99.10;;;;;;5014983;28;20190;-72
2022/07/02 01:01:17;;;;;;;2.40;0.87;;;17.40;99.20;;;;;;5014104;28;20946;-72
2022/07/02 01:03:44;;;;;;;2.47;0.70;;;17.40;99.20;;;;;;5013840;28;20569;-73
2022/07/02 01:06:12;;;;;;;1.83;0.90;;;17.30;99.40;;;;;;5014925;28;20179;-73
2022/07/02 01:11:25;;;;;;;2.10;0.80;;;17.30;99.80;;;;;;5013777;28;20585;-73
2022/07/02 01:13:54;;;;;;;1.80;0.80;;;17.20;99.90;;;;;;5014101;28;20648;-72
2022/07/02 01:16:20;;;;;;;2.73;0.90;;;17.20;99.90;;;;;;5014597;28;20585;-73
2022/07/02 01:18:47;;;;;;;2.00;0.80;;;17.20;99.90;;;;;;5014677;28;20794;-73
2022/07/02 01:21:12;;;;;;;1.73;0.80;;;17.20;99.90;;;;;;5014117;28;20194;-73
2022/07/02 01:23:38;;;;;;;2.23;0.90;;;17.10;99.90;;;;;;5012939;28;20572;-73
2022/07/02 01:26:05;;;;;;;1.90;0.90;;;17.10;99.90;;;;;;4997175;28;20170;-73
2022/07/02 01:28:31;;;;;;;1.30;0.60;;;17.00;99.90;;;;;;5017436;28;20253;-73
2022/07/02 01:30:58;;;;;;;1.80;0.80;;;17.00;99.90;;;;;;4996212;28;20573;-73
2022/07/02 01:33:24;;;;;;;1.40;0.70;;;17.00;99.90;;;;;;5014461;28;20601;-74
2022/07/02 01:35:50;;;;;;;1.70;0.80;;;17.00;99.90;;;;;;5014448;28;20577;-74
2022/07/02 01:38:15;;;;;;;2.70;0.80;;;16.90;99.90;;;;;;5012932;28;20647;-74
2022/07/02 01:40:41;;;;;;;3.13;0.80;;;16.90;99.90;;;;;;5013928;28;20296;-73
2022/07/02 01:43:07;;;;;;;2.07;0.70;;;16.90;99.90;;;;;;5014287;28;20167;-73
2022/07/02 01:45:33;;;;;;;3.10;0.80;;;16.90;99.90;;;;;;5014120;28;20668;-73
2022/07/02 01:47:59;;;;;;;1.70;0.70;;;16.80;99.90;;;;;;5014082;28;20180;-72
2022/07/02 01:50:24;;;;;;;4.90;1.00;;;16.80;99.90;;;;;;4994601;28;20170;-73
2022/07/02 01:52:51;;;;;;;1.70;0.90;;;16.80;99.90;;;;;;5012249;28;20929;-73
2022/07/02 01:55:17;;;;;;;1.57;0.80;;;16.80;99.90;;;;;;5014087;28;20166;-73
2022/07/02 01:57:43;;;;;;;1.33;0.67;;;16.80;99.90;;;;;;5014318;28;20572;-73
2022/07/02 02:00:11;;;;;;;2.90;0.80;;;16.80;99.90;;;;;;5013378;28;20562;-73
2022/07/02 02:02:38;;;;;;;1.83;0.70;;;16.90;99.90;;;;;;5013336;28;20170;-73
2022/07/02 02:05:04;;;;;;;1.73;0.90;;;16.90;99.90;;;;;;5016297;28;20907;-73
2022/07/02 02:07:31;;;;;;;2.00;0.93;;;16.90;99.90;;;;;;5012518;28;20908;-73
2022/07/02 02:09:57;;;;;;;2.10;1.10;;;16.90;99.90;;;;;;5013398;28;20604;-73
2022/07/02 02:12:23;;;;;;;3.97;1.07;;;16.90;99.90;;;;;;4995502;28;20182;-73
2022/07/02 02:14:49;;;;;;;2.07;0.90;;;16.90;99.90;;;;;;5013663;28;20573;-73
2022/07/02 02:17:15;;;;;;;5.47;1.13;;;16.90;99.90;;;;;;5012292;28;20178;-73
2022/07/02 02:19:40;;;;;;;2.00;1.20;;;16.80;99.90;;;;;;5012918;28;20186;-73
2022/07/02 02:22:06;;;;;;;2.60;1.40;;;16.80;99.90;;;;;;5011658;28;20620;-73
2022/07/02 02:24:32;;;;;;;4.00;1.43;;;16.80;99.90;;;;;;5013378;28;20197;-73
2022/07/02 02:26:58;;;;;;;3.20;1.60;;;16.80;99.90;;;;;;5013424;28;20190;-73
2022/07/02 02:29:24;;;;;;;4.30;1.40;;;16.70;99.90;;;;;;5012016;28;20669;-73
2022/07/02 02:31:50;;;;;;;2.67;1.30;;;16.70;99.90;;;;;;5012519;28;20608;-73
2022/07/02 02:34:16;;;;;;;2.00;1.20;;;16.70;99.90;;;;;;5013073;28;20701;-73
2022/07/02 02:36:42;;;;;;;3.53;1.20;;;16.70;99.90;;;;;;5011818;28;20580;-73
2022/07/02 02:39:08;;;;;;;1.50;1.00;;;16.70;99.90;;;;;;5011948;28;20597;-73
2022/07/02 02:41:33;;;;;;;1.77;1.00;;;16.70;99.90;;;;;;5014806;28;20256;-73
2022/07/02 02:43:59;;;;;;;2.87;1.10;;;16.60;99.90;;;;;;5013237;28;21117;-73
2022/07/02 02:46:25;;;;;;;2.80;1.00;;;16.60;99.90;;;;;;5011777;28;20593;-73
2022/07/02 02:48:51;;;;;;;2.00;1.10;;;16.60;99.90;;;;;;5012739;28;20190;-73
2022/07/02 02:51:17;;;;;;;2.60;1.00;;;16.60;99.90;;;;;;5012027;28;20170;-73
2022/07/02 02:53:44;;;;;;;3.07;1.17;;;16.60;99.90;;;;;;5012994;28;20569;-73
2022/07/02 02:56:11;;;;;;;1.60;0.80;;;16.60;99.90;;;;;;4995245;28;20574;-73
2022/07/02 02:58:37;;;;;;;2.10;1.07;;;16.60;99.90;;;;;;5011566;28;21044;-73
2022/07/02 03:01:03;;;;;;;2.30;1.20;;;16.60;99.90;;;;;;5010272;28;20699;-73
2022/07/02 03:03:29;;;;;;;2.37;1.00;;;16.60;99.90;;;;;;5012541;28;21097;-73
2022/07/02 03:05:55;;;;;;;2.10;1.00;;;16.60;99.90;;;;;;5012652;28;20562;-74
2022/07/02 03:08:21;;;;;;;1.73;1.17;;;16.50;99.90;;;;;;5012539;28;20190;-73
2022/07/02 03:10:47;;;;;;;2.38;1.02;;;16.50;99.90;;;;;;5011884;28;20167;-73
2022/07/02 03:13:14;;;;;;;2.60;1.20;;;16.40;99.90;;;;;;5012610;28;20228;-73
2022/07/02 03:15:40;;;;;;;2.47;1.00;;;16.40;99.90;;;;;;5011309;28;20600;-73
2022/07/02 03:18:06;;;;;;;2.53;0.97;;;16.40;99.90;;;;;;5014825;28;20655;-72
2022/07/02 03:20:32;;;;;;;2.83;0.90;;;16.30;99.90;;;;;;5010322;28;20621;-72
2022/07/02 03:22:59;;;;;;;2.00;1.00;;;16.30;99.90;;;;;;5012409;28;20668;-73
2022/07/02 03:25:26;;;;;;;1.60;0.90;;;16.30;99.90;;;;;;5012452;28;20565;-73
2022/07/02 03:27:53;;;;;;;3.80;1.07;;;16.30;99.90;;;;;;5012127;28;20619;-73
2022/07/02 03:30:19;;;;;;;3.53;0.90;;;16.20;99.90;;;;;;5010555;28;20631;-73
2022/07/02 03:32:44;;;;;;;2.27;1.03;;;16.20;99.90;;;;;;5011568;28;20566;-73
2022/07/02 03:35:10;;;;;;;3.30;1.20;;;16.20;99.90;;;;;;5010694;28;20185;-73
2022/07/02 03:37:36;;;;;;;2.80;1.10;;;16.20;99.90;;;;;;5010809;28;20249;-73
2022/07/02 03:40:02;;;;;;;2.23;1.10;;;16.20;99.90;;;;;;5010258;28;20663;-73
2022/07/02 03:42:28;;;;;;;4.65;1.77;;;16.20;99.90;;;;;;5011369;28;20206;-72
2022/07/02 03:44:54;;;;;;;4.10;1.20;;;16.20;99.90;;;;;;5010720;28;20512;-72
2022/07/02 03:47:19;;;;;;;4.23;1.10;;;16.20;99.90;;;;;;5011815;28;20223;-73
2022/07/02 03:49:45;;;;;;;4.10;1.40;;;16.10;99.90;;;;;;5011426;28;20182;-73
2022/07/02 03:52:11;;;;;;;2.37;1.17;;;16.10;99.90;;;;;;5011410;28;20166;-73
2022/07/02 03:54:37;;;;;;;2.20;1.10;;;16.10;99.90;;;;;;5012989;28;20167;-72
2022/07/02 03:57:03;;;;;;;2.73;1.40;;;16.10;99.90;;;;;;5011215;28;20693;-73
2022/07/02 03:59:29;;;;;;;3.83;1.00;;;16.10;99.90;;;;;;5010604;28;20186;-73
2022/07/02 04:01:55;;;;;;;3.27;1.00;;;16.10;99.90;;;;;;5011018;28;20623;-73
2022/07/02 04:04:20;;;;;;;2.80;1.20;;;16.10;99.90;;;;;;5010602;28;20166;-74
2022/07/02 04:06:46;;;;;;;2.07;1.30;;;16.10;99.90;;;;;;5011848;28;20190;-73
2022/07/02 04:09:12;;;;;;;1.73;0.97;;;16.10;99.90;;;;;;5011677;28;20272;-73
2022/07/02 04:11:38;;;;;;;2.20;1.10;;;16.10;99.90;;;;;;5009826;28;20558;-73
2022/07/02 04:14:04;;;;;;;2.20;1.10;;;16.20;99.90;;;;;;5014105;28;20580;-73
2022/07/02 04:16:30;;;;;;;2.57;1.03;;;16.20;99.90;;;;;;5015726;28;20159;-74
2022/07/02 04:18:56;;;;;;;2.17;0.83;;;16.20;99.90;;;;;;5014521;28;20600;-72
2022/07/02 04:21:22;;;;;;;1.60;0.90;;;16.20;99.90;;;;;;5014944;28;21092;-73
2022/07/02 04:23:48;;;;;;;1.40;0.80;;;16.20;99.90;;;;;;5015749;28;20576;-74
2022/07/02 04:26:13;;;;;;;2.33;1.00;;;16.30;99.90;;;;;;5015640;28;20171;-73
2022/07/02 04:28:39;;;;;;;2.27;1.10;;;16.30;99.90;;;;;;5015469;28;20201;-73
2022/07/02 04:31:05;;;;;;;1.50;0.87;;;16.30;99.90;;;;;;5015943;28;20588;-73
2022/07/02 04:33:31;;;;;;;1.97;1.10;;;16.30;99.90;;;;;;5018430;28;20170;-73
2022/07/02 04:35:56;;;;;;;2.17;0.93;;;16.30;99.90;;;;;;5014381;28;20174;-73
2022/07/02 04:38:22;;;;;;;1.50;1.00;;;16.40;99.90;;;;;;5015425;28;20248;-73
2022/07/02 04:40:48;;;;;;;1.50;0.90;;;16.40;99.90;;;;;;5013492;28;20609;-73
2022/07/02 04:43:14;;;;;;;2.03;0.90;;;16.50;99.90;;;;;;5015104;28;20561;-73
2022/07/02 04:45:40;;;;;;;1.50;0.90;;;16.50;99.90;;;;;;5015059;28;20240;-73
2022/07/02 04:48:07;;;;;;;1.70;0.90;;;16.50;99.90;;;;;;4997614;28;20604;-73
2022/07/02 04:50:33;;;;;;;4.23;0.80;;;16.50;99.90;;;;;;5013214;28;20175;-73
2022/07/02 04:52:59;;;;;;;3.30;1.10;;;16.60;99.90;;;;;;5013949;28;20614;-73
2022/07/02 04:55:25;;;;;;;1.70;1.10;;;16.60;99.90;;;;;;5015104;28;21326;-73
2022/07/02 04:57:51;;;;;;;1.60;1.03;;;16.60;99.90;;;;;;5013914;28;20178;-73
2022/07/02 05:00:17;;;;;;;3.13;1.10;;;16.60;99.90;;;;;;5014448;28;20615;-73
2022/07/02 05:02:43;;;;;;;2.10;1.10;;;16.70;99.90;;;;;;5014538;28;20573;-73
2022/07/02 05:05:09;;;;;;;2.80;1.10;;;16.70;99.90;;;;;;5013780;28;20568;-73
2022/07/02 05:07:34;;;;;;;3.03;1.30;;;16.70;99.90;;;;;;5014177;28;20529;-73
2022/07/02 05:10:00;;;;;;;7.13;1.43;;;16.70;99.90;;;;;;5017116;28;20686;-73
2022/07/02 05:12:26;;;;;;;3.73;1.27;;;16.80;99.90;;;;;;5013192;28;20572;-74
2022/07/02 05:14:52;;;;;;;2.37;1.20;;;16.90;99.90;;;;;;4996971;28;20179;-74
2022/07/02 05:17:18;;;;;;;1.60;1.00;;;17.00;99.90;;;;;;5014606;28;20202;-74
2022/07/02 05:19:44;;;;;;;2.30;0.97;;;17.10;99.90;;;;;;5013159;28;20218;-74
2022/07/02 05:22:10;;;;;;;2.33;1.30;;;17.30;99.90;;;;;;5014154;28;20620;-74
2022/07/02 05:24:36;;;;;;;3.53;1.60;;;17.40;99.90;;;;;;5014330;28;20660;-73
2022/07/02 05:27:02;;;;;;;1.67;0.90;;;17.50;99.90;;;;;;5013239;28;20692;-73
2022/07/02 05:29:28;;;;;;;4.13;0.90;;;17.60;99.90;;;;;;5014054;28;20609;-73
2022/07/02 05:31:53;;;;;;;1.40;0.87;;;17.60;99.90;;;;;;5012204;28;20573;-73
2022/07/02 05:34:19;;;;;;;2.37;1.20;;;17.70;99.90;;;;;;5016849;28;20585;-74
2022/07/02 05:36:47;;;;;;;1.67;1.03;;;17.70;99.90;;;;;;5014227;28;20209;-74
2022/07/02 05:39:13;;;;;;;3.40;1.03;;;17.80;99.90;;;;;;5013975;28;20609;-74
2022/07/02 05:41:39;;;;;;;3.13;1.00;;;18.00;99.90;;;;;;5012880;28;20627;-74
2022/07/02 05:44:05;;;;;;;2.07;1.07;;;18.10;99.90;;;;;;5013141;28;20661;-74
2022/07/02 05:46:31;;;;;;;2.90;1.10;;;18.20;99.90;;;;;;5015871;28;20171;-73
2022/07/02 05:48:56;;;;;;;1.40;0.80;;;18.50;99.90;;;;;;5013002;28;20201;-73
2022/07/02 05:51:22;;;;;;;2.10;1.00;;;18.80;99.90;;;;;;5012081;28;21240;-74
2022/07/02 05:53:49;;;;;;;1.57;0.80;;;19.20;99.90;;;;;;5013862;28;20167;-73
2022/07/02 05:56:14;;;;;;;4.43;1.00;;;19.70;99.90;;;;;;5012417;28;20596;-78
2022/07/02 05:58:40;;;;;;;2.60;0.80;;;20.40;99.90;;;;;;5013665;28;20267;-78
2022/07/02 06:01:07;;;;;;;1.93;0.80;;;21.50;99.90;;;;;;5013043;28;20671;-79
2022/07/02 06:03:33;;;;;;;1.80;0.90;;;22.60;99.90;;;;;;5014144;28;20174;-78
2022/07/02 06:08:43;;;;;;;1.77;0.70;;;24.30;99.90;;;;;;5013904;28;20618;-77
2022/07/02 06:11:10;;;;;;;2.13;0.70;;;25.20;99.90;;;;;;5012676;28;21141;-73
2022/07/02 06:13:36;;;;;;;2.70;0.80;;;26.20;99.90;;;;;;5013915;28;20915;-73
2022/07/02 06:16:02;;;;;;;1.80;0.80;;;27.30;99.90;;;;;;5011305;28;20578;-74
2022/07/02 06:18:28;;;;;;;2.13;0.70;;;28.30;99.90;;;;;;5010353;28;20708;-74
2022/07/02 06:20:54;;;;;;;2.37;0.77;;;28.90;99.90;;;;;;5014291;28;20716;-74
2022/07/02 06:23:26;;;;;;;1.53;0.70;;;29.60;99.90;;;;;;5005874;28;20537;-74
2022/07/02 06:26:02;;;;;;;2.20;0.70;;;30.10;97.60;;;;;;5013671;28;20170;-74
2022/07/02 06:28:28;;;;;;;3.97;1.10;;;30.40;97.30;;;;;;5013554;28;20608;-74
2022/07/02 06:30:54;;;;;;;1.77;0.70;;;31.00;95.40;;;;;;5011636;28;20975;-75
2022/07/02 06:33:20;;;;;;;2.10;0.80;;;31.30;94.50;;;;;;5012501;28;20177;-74
2022/07/02 06:35:46;;;;;;;2.33;0.67;;;32.00;93.40;;;;;;5011199;28;20915;-73
2022/07/02 06:38:12;;;;;;;2.33;0.70;;;32.20;90.60;;;;;;5011749;28;20195;-73
2022/07/02 06:40:38;;;;;;;1.53;0.70;;;32.40;90.10;;;;;;5010918;28;20663;-73
2022/07/02 06:43:04;;;;;;;1.50;0.60;;;32.70;86.00;;;;;;5013195;28;20264;-73
2022/07/02 06:45:30;;;;;;;1.70;0.70;;;33.10;83.50;;;;;;5013115;28;20983;-73
2022/07/02 06:47:55;;;;;;;2.73;0.50;;;33.30;81.00;;;;;;5012890;28;20532;-73
2022/07/02 06:50:21;;;;;;;1.53;0.50;;;33.50;79.60;;;;;;5012785;28;20206;-73
2022/07/02 06:52:47;;;;;;;1.73;0.60;;;33.80;76.80;;;;;;5012604;28;20188;-73
2022/07/02 06:55:13;;;;;;;2.63;0.60;;;34.10;75.10;;;;;;4995205;28;20253;-73
2022/07/02 06:57:39;;;;;;;1.60;0.70;;;34.30;71.00;;;;;;5012768;28;20213;-75
2022/07/02 07:00:06;;;;;;;4.80;0.80;;;34.50;72.50;;;;;;5013209;28;20198;-74
2022/07/02 07:02:32;;;;;;;2.90;0.70;;;35.00;69.20;;;;;;5013307;28;20673;-75
2022/07/02 07:04:58;;;;;;;1.23;0.50;;;35.00;65.80;;;;;;5012709;28;20616;-75
2022/07/02 07:07:27;;;;;;;1.60;0.60;;;35.30;64.40;;;;;;5011478;28;20196;-73
2022/07/02 07:09:54;;;;;;;2.10;0.50;;;35.70;64.50;;;;;;5010933;28;20671;-75
2022/07/02 07:12:19;;;;;;;2.00;0.63;;;36.00;62.70;;;;;;5010676;28;20577;-75
2022/07/02 07:14:45;;;;;;;1.50;0.60;;;36.40;62.10;;;;;;5012560;28;20565;-75
2022/07/02 07:17:11;;;;;;;5.13;0.60;;;36.80;60.40;;;;;;5012139;28;20184;-76
2022/07/02 07:19:37;;;;;;;1.67;0.70;;;36.80;56.10;;;;;;5011908;28;20224;-75
2022/07/02 07:22:03;;;;;;;2.03;0.60;;;36.70;56.00;;;;;;5011657;28;20221;-74
2022/07/02 07:24:29;;;;;;;1.50;0.60;;;36.60;54.50;;;;;;5012153;28;20183;-75
2022/07/02 07:26:54;;;;;;;1.23;0.60;;;36.60;54.40;;;;;;5012443;28;20605;-75
2022/07/02 07:29:20;;;;;;;1.70;0.50;;;36.80;54.20;;;;;;5011970;28;20256;-75
2022/07/02 07:31:46;;;;;;;1.50;0.60;;;36.80;53.00;;;;;;5011302;28;20535;-75
2022/07/02 07:34:12;;;;;;;3.20;0.60;;;36.70;52.40;;;;;;5010494;28;20240;-75
2022/07/02 07:36:38;;;;;;;2.00;0.60;;;37.00;53.30;;;;;;5010569;28;20587;-75
2022/07/02 07:39:05;;;;;;;11.57;1.17;;;37.30;52.50;;;;;;5017811;28;20268;-75
2022/07/02 07:41:32;;;;;;;1.77;0.60;;;37.80;52.00;;;;;;5009268;28;20278;-75
2022/07/02 07:43:58;;;;;;;2.20;0.60;;;38.10;51.00;;;;;;5012075;28;20677;-76
2022/07/02 07:46:24;;;;;;;2.70;0.60;;;38.20;49.90;;;;;;5010606;28;20744;-75
2022/07/02 07:48:50;;;;;;;1.93;0.50;;;38.40;50.10;;;;;;4992374;28;21111;-75
2022/07/02 07:51:16;;;;;;;1.40;0.60;;;38.50;48.00;;;;;;5011197;28;20178;-75
2022/07/02 07:53:45;;;;;;;2.80;0.40;;;38.20;47.40;;;;;;5011617;28;20580;-73
2022/07/02 07:56:18;;;;;;;1.40;0.60;;;38.20;46.50;;;;;;5010766;28;20211;-73
2022/07/02 07:58:44;;;;;;;3.30;0.50;;;38.10;45.70;;;;;;5010344;28;20627;-74
2022/07/02 08:01:10;;;;;;;1.93;0.50;;;38.20;46.40;;;;;;5011185;28;21033;-74
2022/07/02 08:03:36;;;;;;;4.33;0.50;;;38.10;44.40;;;;;;5011498;28;20585;-80
2022/07/02 08:06:02;;;;;;;2.27;0.50;;;38.10;44.80;;;;;;5018386;28;20909;-80
2022/07/02 08:08:28;;;;;;;1.50;0.50;;;38.40;45.00;;;;;;5013856;28;20190;-80
2022/07/02 08:10:53;;;;;;;1.77;0.40;;;38.80;45.10;;;;;;5016220;28;20174;-80
2022/07/02 08:13:20;;;;;;;1.20;0.40;;;39.20;44.80;;;;;;5026089;28;20174;-77
2022/07/02 08:15:46;;;;;;;1.40;0.40;;;39.60;45.00;;;;;;5012162;28;20522;-79
2022/07/02 08:18:11;;;;;;;3.40;0.60;;;39.80;44.10;;;;;;5011508;28;20593;-78
2022/07/02 08:20:37;;;;;;;2.70;0.53;;;40.20;43.90;;;;;;4993084;28;20236;-78
2022/07/02 08:23:03;;;;;;;1.30;0.40;;;40.20;42.70;;;;;;5006478;28;20186;-79
2022/07/02 08:25:30;;;;;;;1.57;0.50;;;40.30;42.50;;;;;;5019648;28;20202;-78
2022/07/02 08:27:56;;;;;;;1.70;0.60;;;40.40;41.30;;;;;;5011562;28;20194;-79
2022/07/02 08:30:22;;;;;;;1.23;0.40;;;40.70;42.00;;;;;;5016296;28;20573;-79
2022/07/02 08:32:48;;;;;;;1.93;0.60;;;40.80;40.10;;;;;;5019331;28;20577;-80
2022/07/02 08:35:14;;;;;;;1.73;0.50;;;40.90;39.50;;;;;;5024773;28;20769;-80
2022/07/02 08:37:39;;;;;;;2.13;0.50;;;40.80;38.30;;;;;;5018601;28;20170;-80
2022/07/02 08:40:06;;;;;;;1.20;0.40;;;40.80;37.50;;;;;;5019606;28;20202;-79
2022/07/02 08:42:32;;;;;;;1.10;0.50;;;40.90;37.60;;;;;;4997301;28;20217;-79
2022/07/02 08:45:02;;;;;;;1.30;0.50;;;40.90;37.50;;;;;;5014867;28;20623;-78
2022/07/02 08:47:29;;;;;;;1.60;0.60;;;41.20;38.20;;;;;;5012395;28;20565;-79
2022/07/02 08:49:56;;;;;;;1.17;0.50;;;41.30;37.10;;;;;;5015657;28;20597;-79
2022/07/02 08:52:23;;;;;;;1.70;0.50;;;41.50;36.90;;;;;;5013589;28;20708;-78
2022/07/02 08:54:50;;;;;;;1.10;0.40;;;41.40;34.90;;;;;;5020136;28;20617;-80
2022/07/02 08:57:16;;;;;;;1.20;0.40;;;40.90;34.70;;;;;;5011998;28;20628;-79
2022/07/02 08:59:43;;;;;;;1.20;0.40;;;40.70;34.20;;;;;;4996457;28;20625;-80
2022/07/02 09:02:13;;;;;;;1.20;0.40;;;40.10;33.30;;;;;;5014282;28;20628;-75
2022/07/02 09:04:45;;;;;;;1.40;0.53;;;39.40;33.70;;;;;;4997020;28;20593;-75
2022/07/02 09:07:13;;;;;;;1.50;0.40;;;39.40;34.70;;;;;;5025347;28;20591;-75
2022/07/02 09:09:42;;;;;;;1.90;0.40;;;39.50;35.30;;;;;;5023503;28;20717;-76
2022/07/02 09:12:15;;;;;;;1.27;0.50;;;39.70;34.60;;;;;;5013019;28;20599;-73
2022/07/02 09:14:42;;;;;;;1.43;0.40;;;39.90;34.50;;;;;;5014946;28;20619;-73
2022/07/02 09:17:10;;;;;;;1.30;0.40;;;40.30;35.00;;;;;;5015685;28;21021;-73
2022/07/02 09:19:37;;;;;;;1.30;0.50;;;40.80;34.70;;;;;;5012531;28;20683;-74
2022/07/02 09:22:07;;;;;;;1.27;0.40;;;41.00;34.60;;;;;;5011549;28;20643;-72
2022/07/02 09:24:35;;;;;;;1.30;0.50;;;41.20;32.70;;;;;;5007893;28;20671;-73
2022/07/02 09:27:05;;;;;;;1.37;0.40;;;40.90;32.70;;;;;;5014380;28;20569;-73
2022/07/02 09:29:54;;;;;;;1.23;0.50;;;40.50;31.60;;;;;;5012968;28;20662;-73
2022/07/02 09:32:21;;;;;;;2.33;0.40;;;40.10;32.20;;;;;;5012661;28;20576;-73
2022/07/02 09:34:50;;;;;;;1.40;0.50;;;39.90;33.40;;;;;;5012740;28;20668;-73
2022/07/02 09:37:21;;;;;;;1.30;0.53;;;40.10;34.30;;;;;;5014257;28;20941;-74
2022/07/02 09:39:49;;;;;;;1.90;0.50;;;40.50;34.50;;;;;;5012597;28;21005;-74
2022/07/02 09:42:28;;;;;;;5.60;1.17;;;41.00;34.40;;;;;;5013449;28;21176;-74
2022/07/02 09:44:54;;;;;;;1.37;0.50;;;41.40;32.70;;;;;;5014120;28;20573;-74
2022/07/02 09:47:31;;;;;;;1.80;0.50;;;41.30;32.40;;;;;;5013963;28;20669;-75
2022/07/02 09:50:00;;;;;;;3.53;0.40;;;41.20;31.30;;;;;;5014430;28;20942;-75
2022/07/02 09:52:26;;;;;;;1.30;0.40;;;40.70;32.00;;;;;;5013848;28;20569;-75
2022/07/02 09:54:52;;;;;;;2.50;0.60;;;40.30;31.10;;;;;;5012786;28;20573;-75
2022/07/02 09:57:18;;;;;;;1.20;0.43;;;40.00;31.40;;;;;;4996415;28;20186;-75
2022/07/02 09:59:43;;;;;;;1.60;0.50;;;39.70;31.00;;;;;;5008258;28;20690;-76
2022/07/02 10:02:24;;;;;;;1.60;0.43;;;39.60;32.10;;;;;;5006724;28;20221;-75
2022/07/02 10:04:54;;;;;;;4.03;0.60;;;39.90;31.60;;;;;;5015599;28;20180;-76
2022/07/02 10:07:21;;;;;;;2.67;1.30;;;39.70;31.00;;;;;;5022559;28;20616;-76
2022/07/02 10:09:48;;;;;;;1.30;0.50;;;39.50;32.30;;;;;;5020121;28;21022;-77
2022/07/02 10:12:15;;;;;;;3.00;0.67;;;39.70;32.30;;;;;;5015421;28;20956;-75
2022/07/02 10:14:44;;;;;;;1.60;0.47;;;39.70;31.30;;;;;;5014028;28;20688;-75
2022/07/02 10:17:10;;;;;;;1.13;0.40;;;39.40;31.20;;;;;;5015981;28;20643;-75
2022/07/02 10:19:38;;;;;;;1.30;0.50;;;39.30;31.10;;;;;;5012915;28;20621;-74
2022/07/02 10:22:06;;;;;;;1.17;0.40;;;39.10;31.10;;;;;;5013151;28;20633;-75
2022/07/02 10:24:33;;;;;;;1.30;0.40;;;39.40;31.60;;;;;;5016731;28;20613;-75
2022/07/02 10:27:00;;;;;;;1.53;0.40;;;39.30;31.40;;;;;;5012971;28;20585;-74
2022/07/02 10:29:27;;;;;;;1.30;0.30;;;39.50;31.40;;;;;;5028259;28;20670;-74
2022/07/02 10:32:20;;;;;;;1.20;0.40;;;40.00;31.90;;;;;;5030944;28;20626;-74
2022/07/02 10:35:01;;;;;;;1.57;0.40;;;40.50;31.50;;;;;;5016043;28;20635;-74
2022/07/02 10:37:26;;;;;;;1.30;0.50;;;41.00;31.80;;;;;;5033106;28;20947;-74
2022/07/02 10:40:00;;;;;;;1.40;0.40;;;41.50;31.00;;;;;;5032125;28;20660;-74
2022/07/02 10:42:40;;;;;;;1.40;0.40;;;41.80;30.80;;;;;;4990050;28;20244;-76
2022/07/02 10:45:16;;;;;;;1.20;0.40;;;42.10;30.50;;;;;;5015111;28;20591;-75
2022/07/02 10:48:06;;;;;;;1.10;0.30;;;42.40;30.60;;;;;;5014306;28;20696;-76
2022/07/02 10:50:40;;;;;;;1.03;0.37;;;42.60;29.80;;;;;;5013924;28;20937;-73
2022/07/02 10:53:06;;;;;;;1.30;0.50;;;42.30;28.80;;;;;;5016224;28;20662;-73
2022/07/02 10:55:32;;;;;;;1.80;0.30;;;41.80;28.80;;;;;;5012748;28;20601;-73
2022/07/02 10:58:00;;;;;;;3.60;0.60;;;41.20;28.40;;;;;;5012808;28;20681;-73
2022/07/02 11:00:38;;;;;;;1.53;0.60;;;40.50;28.10;;;;;;5011122;28;20549;-73
2022/07/02 11:03:13;;;;;;;1.23;0.47;;;39.70;28.00;;;;;;5009887;28;20631;-73
2022/07/02 11:05:56;;;;;;;1.20;0.40;;;39.10;28.50;;;;;;5012859;28;20596;-73
2022/07/02 11:08:50;;;;;;;1.40;0.40;;;38.70;28.80;;;;;;5013319;28;20597;-72
2022/07/02 11:11:22;;;;;;;1.20;0.40;;;38.30;28.90;;;;;;5011584;28;20939;-72
2022/07/02 11:13:58;;;;;;;1.23;0.40;;;38.10;29.90;;;;;;5012604;28;20561;-73
2022/07/02 11:16:31;;;;;;;1.17;0.50;;;38.10;29.80;;;;;;5012496;28;20571;-73
2022/07/02 11:18:58;;;;;;;1.47;0.50;;;37.50;29.30;;;;;;5011094;28;20651;-72
2022/07/02 11:21:26;;;;;;;1.40;0.50;;;37.00;29.20;;;;;;5010042;28;21160;-72
2022/07/02 11:23:52;;;;;;;1.50;0.50;;;36.30;29.40;;;;;;4994782;28;20929;-72
2022/07/02 11:26:25;;;;;;;1.50;0.60;;;35.70;29.70;;;;;;5012207;28;20607;-72
2022/07/02 11:28:52;;;;;;;1.67;0.50;;;35.40;30.70;;;;;;5011762;28;20605;-72
2022/07/02 11:31:20;;;;;;;1.80;0.40;;;35.30;30.80;;;;;;5009795;28;20566;-72
2022/07/02 11:33:48;;;;;;;1.40;0.40;;;35.10;31.30;;;;;;5012031;28;20664;-72
2022/07/02 11:36:14;;;;;;;1.47;0.40;;;35.20;31.60;;;;;;5011891;28;20601;-72
2022/07/02 11:38:42;;;;;;;1.50;0.57;;;35.40;31.80;;;;;;5011806;28;21077;-72
2022/07/02 11:41:21;;;;;;;1.70;0.40;;;35.50;31.30;;;;;;5011204;28;20755;-72
2022/07/02 11:43:50;;;;;;;1.60;0.70;;;35.40;31.50;;;;;;5012026;28;20568;-72
2022/07/02 11:46:20;;;;;;;2.60;1.70;;;35.40;31.40;;;;;;5010412;28;20660;-73
2022/07/02 11:48:46;;;;;;;1.90;0.70;;;35.20;31.50;;;;;;5011988;28;20984;-73
2022/07/02 11:51:12;;;;;;;1.70;0.50;;;35.10;31.40;;;;;;4993013;28;20603;-72
2022/07/02 11:53:38;;;;;;;1.30;0.40;;;34.80;32.10;;;;;;5010921;28;20585;-73
2022/07/02 11:56:06;;;;;;;1.83;0.77;;;34.70;32.00;;;;;;5010325;28;20282;-72
2022/07/02 11:58:46;;;;;;;1.43;0.53;;;34.40;32.20;;;;;;5011874;28;20604;-72
2022/07/02 12:01:19;;;;;;;1.20;0.50;;;34.10;32.00;;;;;;5010884;28;20624;-73
2022/07/02 12:03:46;;;;;;;1.40;0.50;;;33.70;32.50;;;;;;5011607;28;20582;-73
2022/07/02 12:06:12;;;;;;;1.30;0.50;;;33.70;33.50;;;;;;5011906;28;21030;-73
2022/07/02 12:08:39;;;;;;;1.60;0.67;;;33.70;33.80;;;;;;5011657;28;20950;-73
2022/07/02 12:11:19;;;;;;;1.70;0.70;;;33.80;34.40;;;;;;5009588;28;20595;-72
2022/07/02 12:13:45;;;;;;;1.40;0.50;;;34.00;34.40;;;;;;5010257;28;21194;-72
2022/07/02 12:16:16;;;;;;;2.23;0.50;;;34.30;34.50;;;;;;5011468;28;21303;-73
2022/07/02 12:18:42;;;;;;;1.37;0.50;;;34.50;34.70;;;;;;5011565;28;20720;-72
2022/07/02 12:21:09;;;;;;;1.20;0.40;;;34.80;34.70;;;;;;5010780;28;20703;-73
2022/07/02 12:23:47;;;;;;;1.30;0.40;;;35.10;34.90;;;;;;5011635;28;20580;-73
2022/07/02 12:26:24;;;;;;;1.47;0.40;;;35.20;34.00;;;;;;5010335;28;21207;-72
2022/07/02 12:31:50;;;;;;;1.70;0.50;;;35.30;33.40;;;;;;5010642;28;20615;-72
2022/07/02 12:34:16;;;;;;;2.27;0.50;;;35.20;32.80;;;;;;5013666;28;20616;-72
2022/07/02 12:36:53;;;;;;;1.40;0.70;;;35.10;33.50;;;;;;5015420;28;20941;-72
2022/07/02 12:39:21;;;;;;;2.33;0.50;;;34.80;32.60;;;;;;5015251;28;20604;-72
2022/07/02 12:41:47;;;;;;;1.50;0.40;;;34.20;32.50;;;;;;5014224;28;20628;-72
2022/07/02 12:44:21;;;;;;;2.00;0.50;;;33.80;32.60;;;;;;5015152;28;20562;-72
2022/07/02 12:46:50;;;;;;;1.30;0.40;;;33.40;32.90;;;;;;5014894;28;20256;-72
2022/07/02 12:49:22;;;;;;;1.30;0.60;;;33.10;33.00;;;;;;5015026;28;20966;-72
2022/07/02 12:52:00;;;;;;;3.23;0.57;;;32.70;33.00;;;;;;5013087;28;20583;-72
2022/07/02 12:54:34;;;;;;;1.50;0.60;;;32.40;34.40;;;;;;5014154;28;20581;-76
2022/07/02 12:57:18;;;;;;;2.03;0.53;;;32.10;33.90;;;;;;5014956;28;20573;-76
2022/07/02 12:59:45;;;;;;;1.33;0.50;;;31.80;34.30;;;;;;5014889;28;20615;-77